createdAt,value
2018-03-04T00:00:33.330Z,66.00
2018-03-04T00:03:01.667Z,65.15
2018-03-04T00:05:29.273Z,68.37
2018-03-04T00:07:56.830Z,66.28
2018-03-04T00:10:24.394Z,67.60
2018-03-04T00:12:52.057Z,69.43
2018-03-04T00:15:19.680Z,64.60
2018-03-04T00:17:48.146Z,67.25
2018-03-04T00:20:16.207Z,69.68
2018-03-04T00:22:43.819Z,64.57
2018-03-04T00:25:11.457Z,67.43
2018-03-04T00:27:39.490Z,69.32
2018-03-04T00:30:07.049Z,68.62
2018-03-04T00:32:34.669Z,69.35
2018-03-04T00:35:02.290Z,70.33
2018-03-04T00:37:30.620Z,69.55
2018-03-04T00:39:58.303Z,70.68
2018-03-04T00:42:26.664Z,71.40
2018-03-04T00:44:55.027Z,63.65
2018-03-04T00:47:24.371Z,67.57
2018-03-04T00:49:52.769Z,67.60
2018-03-04T00:52:20.356Z,63.00
2018-03-04T00:54:48.326Z,65.23
2018-03-04T00:57:16.972Z,66.97
2018-03-04T00:59:44.533Z,71.47
2018-03-04T01:02:12.123Z,69.87
2018-03-04T01:04:39.720Z,69.50
2018-03-04T01:07:07.326Z,63.67
2018-03-04T01:09:34.944Z,67.90
2018-03-04T01:12:03.305Z,67.30
2018-03-04T01:14:30.906Z,69.78
2018-03-04T01:16:58.491Z,66.37
2018-03-04T01:19:26.032Z,68.53
2018-03-04T01:21:53.637Z,66.50
2018-03-04T01:24:21.207Z,71.47
2018-03-04T01:26:48.909Z,68.18
2018-03-04T01:29:17.027Z,67.45
2018-03-04T01:31:44.588Z,62.78
2018-03-04T01:34:12.188Z,66.15
2018-03-04T01:36:40.517Z,65.87
2018-03-04T01:39:08.171Z,67.62
2018-03-04T01:41:35.741Z,65.55
2018-03-04T01:44:04.101Z,69.03
2018-03-04T01:46:32.464Z,65.72
2018-03-04T01:49:01.212Z,67.23
2018-03-04T01:51:41.255Z,66.40
2018-03-04T01:54:08.907Z,67.90
2018-03-04T01:56:37.246Z,67.80
2018-03-04T01:59:04.811Z,64.00
2018-03-04T02:01:32.424Z,64.77
2018-03-04T02:04:00.017Z,63.42
2018-03-04T02:06:27.613Z,66.85
2018-03-04T02:08:55.168Z,67.80
2018-03-04T02:11:23.611Z,64.97
2018-03-04T02:13:51.184Z,68.68
2018-03-04T02:16:18.777Z,66.32
2018-03-04T02:18:48.079Z,70.37
2018-03-04T02:21:16.246Z,60.10
2018-03-04T02:23:43.837Z,67.72
2018-03-04T02:26:11.401Z,65.85
2018-03-04T02:28:39.778Z,67.20
2018-03-04T02:31:07.357Z,67.40
2018-03-04T02:33:34.918Z,66.15
2018-03-04T02:36:02.543Z,69.47
2018-03-04T02:38:30.122Z,67.68
2018-03-04T02:40:57.741Z,65.87
2018-03-04T02:43:25.322Z,69.20
2018-03-04T02:45:52.933Z,65.30
2018-03-04T02:48:20.585Z,65.93
2018-03-04T02:50:48.397Z,66.90
2018-03-04T02:53:17.202Z,69.37
2018-03-04T02:55:44.758Z,70.93
2018-03-04T02:58:12.396Z,68.97
2018-03-04T03:00:39.967Z,70.70
2018-03-04T03:06:01.349Z,72.10
2018-03-04T03:08:28.949Z,65.85
2018-03-04T03:10:57.347Z,70.22
2018-03-04T03:13:24.952Z,75.22
2018-03-04T03:15:53.391Z,78.85
2018-03-04T03:18:20.955Z,74.10
2018-03-04T03:20:49.348Z,74.68
2018-03-04T03:23:17.623Z,75.03
2018-03-04T03:25:45.216Z,78.97
2018-03-04T03:28:14.620Z,76.37
2018-03-04T03:30:42.222Z,75.55
2018-03-04T03:33:09.819Z,78.97
2018-03-04T03:35:37.407Z,78.18
2018-03-04T03:38:05.008Z,78.32
2018-03-04T03:40:32.566Z,75.72
2018-03-04T03:43:00.157Z,75.50
2018-03-04T03:45:28.506Z,72.60
2018-03-04T03:47:56.829Z,70.93
2018-03-04T03:50:25.236Z,68.65
2018-03-04T03:52:53.615Z,68.45
2018-03-04T03:55:21.953Z,66.60
2018-03-04T03:57:49.577Z,65.35
2018-03-04T04:00:17.918Z,66.28
2018-03-04T04:02:47.206Z,69.18
2018-03-04T04:05:14.802Z,69.43
2018-03-04T04:07:42.354Z,68.62
2018-03-04T04:10:09.951Z,66.50
2018-03-04T04:12:37.501Z,72.43
2018-03-04T04:15:05.867Z,68.78
2018-03-04T04:17:34.205Z,70.90
2018-03-04T04:20:01.854Z,71.10
2018-03-04T04:22:30.188Z,69.30
2018-03-04T04:24:57.825Z,70.35
2018-03-04T04:27:25.434Z,68.70
2018-03-04T04:29:53.814Z,66.55
2018-03-04T04:32:22.191Z,64.60
2018-03-04T04:34:49.807Z,66.12
2018-03-04T04:37:18.353Z,64.80
2018-03-04T04:39:47.327Z,67.32
2018-03-04T04:42:16.363Z,67.07
2018-03-04T04:44:43.968Z,65.78
2018-03-04T04:47:11.680Z,69.40
2018-03-04T04:49:39.236Z,70.43
2018-03-04T04:52:07.568Z,70.85
2018-03-04T04:54:35.931Z,68.30
2018-03-04T04:57:03.522Z,71.20
2018-03-04T04:59:31.875Z,71.00
2018-03-04T05:01:59.448Z,70.60
2018-03-04T05:04:27.036Z,71.28
2018-03-04T05:06:54.628Z,73.60
2018-03-04T05:09:22.545Z,73.35
2018-03-04T05:11:50.109Z,73.28
2018-03-04T05:14:17.683Z,76.07
2018-03-04T05:16:45.259Z,76.07
2018-03-04T05:19:12.884Z,78.47
2018-03-04T05:21:40.458Z,79.90
2018-03-04T05:24:08.042Z,76.00
2018-03-04T05:26:35.927Z,82.80
2018-03-04T05:29:04.995Z,74.72
2018-03-04T05:31:32.625Z,77.40
2018-03-04T05:34:00.238Z,80.97
2018-03-04T05:36:27.789Z,81.28
2018-03-04T05:38:55.375Z,80.47
2018-03-04T05:41:22.969Z,79.35
2018-03-04T05:43:50.535Z,78.82
2018-03-04T05:46:18.138Z,80.75
2018-03-04T05:48:45.749Z,83.43
2018-03-04T05:51:13.342Z,76.68
2018-03-04T05:53:40.888Z,76.93
2018-03-04T05:56:08.489Z,74.18
2018-03-04T05:58:36.620Z,69.62
2018-03-04T06:01:05.602Z,67.22
2018-03-04T06:03:33.289Z,65.25
2018-03-04T06:06:00.887Z,68.15
2018-03-04T06:08:28.673Z,65.30
2018-03-04T06:10:56.275Z,65.65
2018-03-04T06:13:24.017Z,68.03
2018-03-04T06:15:51.590Z,63.80
2018-03-04T06:18:19.221Z,64.82
2018-03-04T06:20:47.225Z,60.08
2018-03-04T06:23:15.770Z,65.18
2018-03-04T06:25:43.365Z,62.75
2018-03-04T06:28:11.724Z,61.90
2018-03-04T06:30:39.338Z,63.75
2018-03-04T06:33:07.210Z,63.15
2018-03-04T06:35:35.578Z,63.67
2018-03-04T06:38:03.203Z,55.55
2018-03-04T06:40:30.866Z,55.17
2018-03-04T06:42:58.466Z,58.30
2018-03-04T06:45:26.075Z,52.55
2018-03-04T06:47:54.871Z,48.95
2018-03-04T06:50:22.487Z,49.25
2018-03-04T06:52:50.122Z,50.47
2018-03-04T06:55:17.866Z,47.10
2018-03-04T06:57:45.445Z,46.50
2018-03-04T07:00:13.287Z,48.33
2018-03-04T07:02:40.925Z,46.57
2018-03-04T07:05:08.616Z,42.87
2018-03-04T07:07:36.763Z,42.97
2018-03-04T07:10:06.122Z,41.90
2018-03-04T07:12:33.726Z,44.83
2018-03-04T07:15:01.442Z,41.70
2018-03-04T07:17:29.763Z,42.97
2018-03-04T07:19:57.394Z,41.83
2018-03-04T07:22:25.004Z,37.80
2018-03-04T07:24:52.544Z,39.70
2018-03-04T07:27:20.957Z,43.23
2018-03-04T07:29:48.736Z,37.60
2018-03-04T07:32:17.074Z,39.30
2018-03-04T07:34:44.654Z,42.67
2018-03-04T07:37:13.039Z,38.40
2018-03-04T07:39:40.622Z,37.03
2018-03-04T07:42:08.200Z,39.23
2018-03-04T07:44:36.824Z,38.20
2018-03-04T07:47:04.909Z,39.60
2018-03-04T07:49:32.474Z,39.03
2018-03-04T07:52:00.101Z,39.47
2018-03-04T07:54:28.426Z,38.10
2018-03-04T07:56:56.005Z,38.60
2018-03-04T07:59:24.441Z,38.33
2018-03-04T08:01:52.780Z,40.93
2018-03-04T08:04:20.412Z,42.83
2018-03-04T08:06:47.973Z,41.97
2018-03-04T08:09:16.347Z,40.43
2018-03-04T08:11:43.882Z,40.50
2018-03-04T08:14:11.486Z,40.23
2018-03-04T08:16:39.083Z,37.33
2018-03-04T08:19:07.340Z,39.43
2018-03-04T08:21:35.696Z,39.07
2018-03-04T08:24:03.271Z,37.73
2018-03-04T08:26:43.356Z,38.13
2018-03-04T08:29:10.898Z,37.17
2018-03-04T08:31:38.641Z,38.93
2018-03-04T08:34:08.230Z,40.57
2018-03-04T08:36:36.488Z,40.03
2018-03-04T08:39:04.128Z,42.07
2018-03-04T08:41:31.718Z,42.00
2018-03-04T08:44:00.070Z,40.10
2018-03-04T08:46:27.636Z,39.70
2018-03-04T08:48:56.000Z,37.07
2018-03-04T08:51:24.327Z,39.80
2018-03-04T08:53:51.939Z,39.20
2018-03-04T08:56:19.542Z,41.17
2018-03-04T08:58:47.159Z,45.10
2018-03-04T09:01:14.743Z,47.07
2018-03-04T09:03:42.583Z,41.20
2018-03-04T09:06:10.628Z,40.37
2018-03-04T09:08:38.257Z,40.67
2018-03-04T09:11:07.989Z,38.60
2018-03-04T09:13:37.362Z,40.00
2018-03-04T09:16:06.814Z,41.60
2018-03-04T09:18:34.834Z,38.23
2018-03-04T09:21:02.438Z,36.87
2018-03-04T09:23:30.053Z,43.53
2018-03-04T09:25:57.674Z,37.90
2018-03-04T09:28:25.252Z,45.47
2018-03-04T09:30:52.872Z,47.63
2018-03-04T09:33:20.458Z,47.63
2018-03-04T09:35:48.104Z,48.47
2018-03-04T09:38:16.520Z,39.30
2018-03-04T09:40:44.407Z,42.50
2018-03-04T09:43:11.995Z,44.93
2018-03-04T09:45:39.581Z,41.20
2018-03-04T09:48:08.089Z,36.70
2018-03-04T09:50:35.942Z,39.57
2018-03-04T09:53:03.575Z,42.83
2018-03-04T09:55:31.926Z,39.70
2018-03-04T09:58:00.598Z,43.47
2018-03-04T10:00:29.413Z,42.70
2018-03-04T10:02:57.162Z,42.83
2018-03-04T10:05:24.772Z,43.50
2018-03-04T10:07:53.091Z,43.47
2018-03-04T10:10:20.662Z,42.80
2018-03-04T10:12:48.247Z,44.30
2018-03-04T10:15:16.812Z,42.60
2018-03-04T10:17:44.387Z,42.43
2018-03-04T10:20:11.959Z,41.87
2018-03-04T10:22:39.552Z,38.17
2018-03-04T10:25:07.131Z,33.70
2018-03-04T10:27:35.024Z,35.13
2018-03-04T10:30:02.644Z,35.40
2018-03-04T10:32:30.394Z,30.70
2018-03-04T10:34:58.019Z,33.47
2018-03-04T10:37:25.624Z,35.13
2018-03-04T10:39:53.296Z,34.27
2018-03-04T10:42:20.942Z,32.30
2018-03-04T10:44:48.518Z,29.40
2018-03-04T10:47:16.968Z,31.40
2018-03-04T10:49:44.601Z,29.77
2018-03-04T10:52:12.184Z,33.00
2018-03-04T10:54:41.855Z,34.03
2018-03-04T10:57:10.804Z,29.30
2018-03-04T10:59:38.444Z,28.13
2018-03-04T11:02:12.286Z,33.40
2018-03-04T11:04:39.933Z,31.17
2018-03-04T11:07:07.515Z,34.63
2018-03-04T11:09:36.064Z,29.23
2018-03-04T11:12:03.610Z,31.30
2018-03-04T11:14:31.300Z,28.40
2018-03-04T11:16:58.904Z,29.53
2018-03-04T11:19:26.681Z,26.10
2018-03-04T11:21:54.272Z,25.57
2018-03-04T11:24:21.853Z,24.33
2018-03-04T11:26:49.495Z,25.30
2018-03-04T11:29:17.272Z,29.20
2018-03-04T11:31:44.826Z,30.37
2018-03-04T11:34:12.429Z,29.60
2018-03-04T11:36:41.746Z,28.40
2018-03-04T11:39:09.399Z,32.43
2018-03-04T11:41:36.962Z,26.60
2018-03-04T11:44:04.919Z,33.47
2018-03-04T11:46:32.531Z,35.97
2018-03-04T11:49:00.156Z,33.63
2018-03-04T11:51:27.772Z,37.43
2018-03-04T11:53:56.191Z,35.57
2018-03-04T11:56:23.844Z,32.63
2018-03-04T11:58:51.443Z,30.63
2018-03-04T12:01:19.108Z,31.30
2018-03-04T12:03:46.677Z,30.00
2018-03-04T12:06:14.452Z,31.63
2018-03-04T12:08:42.130Z,31.93
2018-03-04T12:11:09.748Z,33.10
2018-03-04T12:13:37.342Z,29.07
2018-03-04T12:16:05.683Z,26.73
2018-03-04T12:18:33.303Z,26.90
2018-03-04T12:21:00.923Z,27.57
2018-03-04T12:23:29.311Z,23.23
2018-03-04T12:25:56.985Z,24.30
2018-03-04T12:28:24.631Z,28.60
2018-03-04T12:30:52.165Z,25.07
2018-03-04T12:33:20.838Z,25.07
2018-03-04T12:35:48.478Z,22.23
2018-03-04T12:38:16.249Z,23.93
2018-03-04T12:40:43.872Z,23.00
2018-03-04T12:43:11.475Z,22.23
2018-03-04T12:45:40.265Z,21.33
2018-03-04T12:48:07.863Z,22.90
2018-03-04T12:50:36.428Z,24.53
2018-03-04T12:53:04.021Z,26.70
2018-03-04T12:55:31.684Z,27.30
2018-03-04T12:57:59.288Z,28.83
2018-03-04T13:00:28.038Z,27.17
2018-03-04T13:02:56.508Z,27.77
2018-03-04T13:05:24.854Z,30.10
2018-03-04T13:07:53.436Z,25.33
2018-03-04T13:10:21.291Z,27.10
2018-03-04T13:12:48.871Z,22.60
2018-03-04T13:15:16.512Z,22.03
2018-03-04T13:17:44.212Z,19.93
2018-03-04T13:20:11.802Z,20.77
2018-03-04T13:22:39.523Z,22.03
2018-03-04T13:25:07.141Z,19.83
2018-03-04T13:27:35.445Z,20.80
2018-03-04T13:30:03.811Z,21.03
2018-03-04T13:32:31.459Z,19.43
2018-03-04T13:34:59.968Z,19.57
2018-03-04T13:37:27.611Z,21.00
2018-03-04T13:39:55.282Z,17.70
2018-03-04T13:42:22.829Z,20.83
2018-03-04T13:44:50.460Z,19.20
2018-03-04T13:47:18.103Z,20.73
2018-03-04T13:49:45.649Z,18.23
2018-03-04T13:52:13.249Z,19.10
2018-03-04T13:54:40.994Z,18.57
2018-03-04T13:57:08.637Z,18.67
2018-03-04T13:59:37.171Z,18.57
2018-03-04T14:02:05.404Z,18.93
2018-03-04T14:04:33.886Z,18.43
2018-03-04T14:07:01.908Z,19.80
2018-03-04T14:09:29.560Z,21.33
2018-03-04T14:11:57.894Z,22.60
2018-03-04T14:14:25.526Z,21.70
2018-03-04T14:16:53.096Z,19.87
2018-03-04T14:19:20.708Z,20.37
2018-03-04T14:21:48.265Z,19.00
2018-03-04T14:24:15.903Z,21.27
2018-03-04T14:26:43.465Z,22.37
2018-03-04T14:29:11.078Z,21.20
2018-03-04T14:31:38.667Z,21.20
2018-03-04T14:34:08.021Z,21.30
2018-03-04T14:36:36.516Z,22.03
2018-03-04T14:39:04.111Z,20.40
2018-03-04T14:41:31.665Z,20.10
2018-03-04T14:43:59.423Z,20.53
2018-03-04T14:46:27.745Z,19.27
2018-03-04T14:48:55.390Z,20.40
2018-03-04T14:51:22.970Z,17.53
2018-03-04T14:53:50.531Z,19.00
2018-03-04T14:56:18.141Z,20.83
2018-03-04T14:58:46.485Z,20.10
2018-03-04T15:01:14.137Z,21.73
2018-03-04T15:03:42.530Z,21.50
2018-03-04T15:06:10.208Z,22.17
2018-03-04T15:08:37.799Z,21.63
2018-03-04T15:11:05.911Z,20.00
2018-03-04T15:13:34.244Z,19.47
2018-03-04T15:16:02.598Z,21.40
2018-03-04T15:18:30.219Z,21.63
2018-03-04T15:20:58.718Z,19.83
2018-03-04T15:23:26.331Z,20.40
2018-03-04T15:25:54.003Z,20.40
2018-03-04T15:28:22.331Z,19.97
2018-03-04T15:30:49.962Z,20.33
2018-03-04T15:33:17.586Z,19.13
2018-03-04T15:35:45.349Z,18.53
2018-03-04T15:38:12.962Z,18.33
2018-03-04T15:40:40.511Z,17.20
2018-03-04T15:43:08.105Z,18.13
2018-03-04T15:45:35.780Z,19.20
2018-03-04T15:48:03.396Z,20.70
2018-03-04T15:50:30.973Z,20.50
2018-03-04T15:52:58.622Z,20.63
2018-03-04T15:55:26.971Z,22.83
2018-03-04T15:57:54.538Z,22.10
2018-03-04T16:00:22.216Z,26.03
2018-03-04T16:02:50.044Z,21.77
2018-03-04T16:05:17.629Z,23.00
2018-03-04T16:07:45.203Z,24.20
2018-03-04T16:10:12.808Z,23.67
2018-03-04T16:12:40.414Z,25.37
2018-03-04T16:15:08.016Z,23.70
2018-03-04T16:17:37.377Z,24.57
2018-03-04T16:20:05.711Z,24.03
2018-03-04T16:22:33.312Z,22.47
2018-03-04T16:25:01.717Z,21.57
2018-03-04T16:27:30.377Z,18.87
2018-03-04T16:29:57.954Z,21.93
2018-03-04T16:32:25.566Z,19.67
2018-03-04T16:34:53.118Z,21.60
2018-03-04T16:37:21.652Z,19.83
2018-03-04T16:39:49.312Z,20.60
2018-03-04T16:42:16.982Z,21.33
2018-03-04T16:44:44.556Z,19.93
2018-03-04T16:47:12.149Z,23.00
2018-03-04T16:49:39.745Z,23.90
2018-03-04T16:52:07.353Z,22.93
2018-03-04T16:54:35.878Z,24.70
2018-03-04T16:57:03.503Z,28.07
2018-03-04T16:59:31.850Z,29.60
2018-03-04T17:02:00.246Z,29.43
2018-03-04T17:04:27.858Z,30.50
2018-03-04T17:06:56.430Z,32.17
2018-03-04T17:09:24.770Z,32.33
2018-03-04T17:11:53.158Z,32.80
2018-03-04T17:14:20.716Z,31.30
2018-03-04T17:16:49.119Z,34.13
2018-03-04T17:19:16.784Z,32.23
2018-03-04T17:21:45.136Z,32.17
2018-03-04T17:24:13.478Z,33.23
2018-03-04T17:26:41.179Z,31.90
2018-03-04T17:29:08.773Z,32.40
2018-03-04T17:31:37.449Z,29.43
2018-03-04T17:34:09.712Z,26.27
2018-03-04T17:36:37.397Z,22.80
2018-03-04T17:39:05.770Z,25.10
2018-03-04T17:41:33.384Z,20.50
2018-03-04T17:44:01.043Z,23.13
2018-03-04T17:46:28.606Z,22.73
2018-03-04T17:48:56.307Z,22.80
2018-03-04T17:51:23.861Z,24.63
2018-03-04T17:53:51.824Z,25.10
2018-03-04T17:56:19.387Z,26.10
2018-03-04T17:58:47.007Z,25.50
2018-03-04T18:01:14.733Z,26.20
2018-03-04T18:03:42.399Z,26.40
2018-03-04T18:06:10.059Z,26.83
2018-03-04T18:08:37.663Z,27.30
2018-03-04T18:11:06.105Z,26.10
2018-03-04T18:13:33.739Z,25.27
2018-03-04T18:16:01.335Z,25.10
2018-03-04T18:18:28.957Z,25.43
2018-03-04T18:20:56.573Z,27.00
2018-03-04T18:23:24.142Z,25.63
2018-03-04T18:25:52.502Z,27.27
2018-03-04T18:28:20.079Z,27.67
2018-03-04T18:30:48.494Z,27.23
2018-03-04T18:33:16.099Z,28.23
2018-03-04T18:35:43.721Z,27.83
2018-03-04T18:38:11.340Z,27.93
2018-03-04T18:40:40.204Z,27.37
2018-03-04T18:43:07.795Z,28.43
2018-03-04T18:45:36.247Z,28.63
2018-03-04T18:48:04.690Z,29.70
2018-03-04T18:50:33.237Z,28.83
2018-03-04T18:53:00.819Z,30.50
2018-03-04T18:55:29.225Z,30.27
2018-03-04T18:57:56.936Z,32.23
2018-03-04T19:00:25.305Z,33.07
2018-03-04T19:02:53.665Z,30.73
2018-03-04T19:05:21.956Z,30.37
2018-03-04T19:07:49.600Z,32.27
2018-03-04T19:10:17.156Z,34.10
2018-03-04T19:12:45.535Z,34.90
2018-03-04T19:15:13.160Z,33.20
2018-03-04T19:17:41.498Z,34.20
2018-03-04T19:20:09.104Z,33.67
2018-03-04T19:22:37.562Z,35.70
2018-03-04T19:25:05.482Z,33.20
2018-03-04T19:27:33.842Z,35.27
2018-03-04T19:30:01.451Z,37.80
2018-03-04T19:32:29.038Z,36.07
2018-03-04T19:34:57.693Z,34.90
2018-03-04T19:37:25.283Z,36.10
2018-03-04T19:39:53.382Z,37.10
2018-03-04T19:42:21.780Z,36.00
2018-03-04T19:45:03.237Z,37.00
2018-03-04T19:47:30.854Z,36.50
2018-03-04T19:49:59.234Z,38.40
2018-03-04T19:52:26.890Z,39.20
2018-03-04T19:54:54.471Z,37.83
2018-03-04T19:57:22.676Z,40.03
2018-03-04T19:59:50.248Z,38.07
2018-03-04T20:02:18.005Z,38.47
2018-03-04T20:04:45.530Z,39.43
2018-03-04T20:07:13.132Z,41.23
2018-03-04T20:09:40.695Z,40.20
2018-03-04T20:12:08.344Z,38.83
2018-03-04T20:14:36.042Z,39.47
2018-03-04T20:17:03.669Z,40.63
2018-03-04T20:19:31.303Z,39.40
2018-03-04T20:21:59.943Z,42.03
2018-03-04T20:24:27.562Z,40.60
2018-03-04T20:26:56.125Z,45.83
2018-03-04T20:29:23.703Z,43.03
2018-03-04T20:31:51.947Z,45.77
2018-03-04T20:34:19.550Z,43.10
2018-03-04T20:36:47.201Z,45.00
2018-03-04T20:39:15.569Z,47.47
2018-03-04T20:41:43.921Z,45.27
2018-03-04T20:44:12.276Z,44.23
2018-03-04T20:46:39.840Z,46.20
2018-03-04T20:49:08.225Z,47.27
2018-03-04T20:51:35.898Z,47.37
2018-03-04T20:54:03.503Z,46.13
2018-03-04T20:56:31.510Z,44.40
2018-03-04T20:58:59.085Z,48.30
2018-03-04T21:01:26.903Z,49.63
2018-03-04T21:03:55.321Z,47.97
2018-03-04T21:06:23.507Z,50.23
2018-03-04T21:08:51.812Z,49.30
2018-03-04T21:11:19.390Z,49.37
2018-03-04T21:13:47.834Z,46.77
2018-03-04T21:16:15.428Z,47.93
2018-03-04T21:18:43.778Z,50.57
2018-03-04T21:21:12.142Z,47.50
2018-03-04T21:23:40.535Z,49.70
2018-03-04T21:26:08.187Z,50.87
2018-03-04T21:28:35.763Z,47.90
2018-03-04T21:31:03.332Z,48.50
2018-03-04T21:33:31.871Z,49.57
2018-03-04T21:36:00.375Z,52.07
2018-03-04T21:38:28.725Z,51.60
2018-03-04T21:40:56.404Z,48.43
2018-03-04T21:43:23.992Z,49.87
2018-03-04T21:45:51.636Z,49.17
2018-03-04T21:48:19.223Z,51.93
2018-03-04T21:51:00.211Z,50.63
2018-03-04T21:53:27.820Z,50.57
2018-03-04T21:55:55.401Z,50.33
2018-03-04T21:58:22.974Z,49.03
2018-03-04T22:00:51.381Z,51.07
2018-03-04T22:03:19.745Z,50.90
2018-03-04T22:05:48.177Z,50.30
2018-03-04T22:08:15.767Z,50.70
2018-03-04T22:10:44.142Z,48.97
2018-03-04T22:13:11.760Z,52.80
2018-03-04T22:15:39.384Z,49.23
2018-03-04T22:18:08.477Z,53.70
2018-03-04T22:20:36.095Z,49.70
2018-03-04T22:23:03.680Z,49.43
2018-03-04T22:25:32.984Z,49.40
2018-03-04T22:28:00.594Z,50.50
2018-03-04T22:30:28.211Z,52.50
2018-03-04T22:32:55.877Z,51.10
2018-03-04T22:35:23.876Z,50.63
2018-03-04T22:37:52.239Z,51.37
2018-03-04T22:40:20.650Z,51.23
2018-03-04T22:42:48.240Z,54.27
2018-03-04T22:45:16.755Z,53.23
2018-03-04T22:47:45.072Z,53.83
2018-03-04T22:50:13.440Z,54.90
2018-03-04T22:52:41.021Z,53.13
2018-03-04T22:55:10.533Z,52.40
2018-03-04T22:57:39.571Z,53.23
2018-03-04T23:00:07.855Z,53.43
2018-03-04T23:02:35.463Z,53.13
2018-03-04T23:05:03.371Z,52.07
2018-03-04T23:07:30.965Z,51.77
2018-03-04T23:09:58.625Z,54.57
2018-03-04T23:12:26.996Z,53.43
2018-03-04T23:14:55.394Z,51.50
2018-03-04T23:17:23.769Z,53.90
2018-03-04T23:19:51.486Z,55.17
2018-03-04T23:22:20.018Z,57.20
2018-03-04T23:24:47.646Z,54.50
2018-03-04T23:27:15.252Z,57.93
2018-03-04T23:29:42.801Z,54.30
2018-03-04T23:32:11.186Z,56.83
2018-03-04T23:34:39.342Z,56.10
2018-03-04T23:37:08.319Z,57.47
2018-03-04T23:39:35.927Z,57.87
2018-03-04T23:42:03.502Z,56.50
2018-03-04T23:44:31.863Z,56.13
2018-03-04T23:47:00.206Z,58.37
2018-03-04T23:49:27.811Z,53.37
2018-03-04T23:51:55.460Z,57.08
2018-03-04T23:54:23.045Z,57.80
2018-03-04T23:56:50.662Z,58.13
2018-03-04T23:59:18.330Z,55.63
